Aviation WX

[Source: ADDS]
METAR
KFKL 241535Z AUTO 25010G16KT 10SM FEW042 SCT048 OVC065 23/13 A2988 RMK AO1 =
TAF
KFKL 241120Z 2412/2512 28005KT P6SM SCT050 FM241600 27008G16KT P6SM SCT200 FM250300 26004KT P6SM SCT200 AMD LTD TO CLD VIS AND WIND =

EAA Chapter 994

EAA Chapter 994 is a local chapter of the national Experimental Aircraft Association.  Chapter membership is open to all persons interested in sport aviation. You do not need to be a pilot or aircraft owner to join.   Our Chapter sponsors the annual Autumn Leaf Festival Pancake Breakfast, and holds several Young Eagles events each year.  The Young Eagles events provide kids 8 to 17 years of age a positive aviation experience in the form of no cost aviation instruction, including flight in a general aviation aircraft.

WEbNatAvDAy
EAA member giving instruction on  aircraft wing rib construction during the 2011 National Aviation Day celebration.



 Dana web

 EAA member instructing on the art of rib building for airplane wings.


Crowd 1


Ed egg maker

 Ed the egg master.


Crowd 2


Pancake maker

 Let me show you how it's done Kim.


Crowd 3

 Important business discussion at the coffee stand.


Scott Jim

 

 



EAA Links

Chapter 994  web site -  http://994.eaachapter.org/

EAA National web site - http://www.eaa.org/

Young Eagles web site - http://www.youngeagles.org/